createdAt,value
2023-03-14T00:01:25.552Z,5.87
2023-03-14T00:04:05.885Z,5.84
2023-03-14T00:07:11.925Z,5.20
2023-03-14T00:16:50.090Z,5.56
2023-03-14T00:19:35.192Z,5.37
2023-03-14T00:22:22.422Z,5.08
2023-03-14T00:25:09.228Z,5.20
2023-03-14T00:27:46.357Z,4.99
2023-03-14T00:33:47.212Z,4.95
2023-03-14T00:36:30.027Z,4.84
2023-03-14T00:39:04.350Z,5.61
2023-03-14T00:41:40.621Z,5.00
2023-03-14T00:44:22.294Z,4.81
2023-03-14T00:46:55.789Z,5.63
2023-03-14T00:49:24.643Z,4.74
2023-03-14T00:52:00.858Z,5.63
2023-03-14T00:54:52.130Z,4.54
2023-03-14T00:57:32.056Z,5.46
2023-03-14T01:00:10.967Z,5.60
2023-03-14T01:02:40.672Z,5.63
2023-03-14T01:05:24.958Z,5.33
2023-03-14T01:07:58.537Z,5.38
2023-03-14T01:10:33.024Z,5.56
2023-03-14T01:13:14.309Z,5.48
2023-03-14T01:16:15.331Z,4.95
2023-03-14T01:19:04.125Z,5.11
2023-03-14T01:21:43.241Z,5.08
2023-03-14T01:30:34.748Z,5.54
2023-03-14T01:33:24.588Z,4.60
2023-03-14T01:39:17.980Z,5.02
2023-03-14T01:42:07.420Z,5.62
2023-03-14T01:45:04.826Z,5.55
2023-03-14T01:48:09.107Z,4.87
2023-03-14T01:51:16.558Z,4.92
2023-03-14T01:54:15.453Z,4.84
2023-03-14T01:57:02.413Z,5.20
2023-03-14T01:59:44.450Z,4.89
2023-03-14T02:02:58.409Z,5.01
2023-03-14T02:05:52.985Z,4.94
2023-03-14T02:08:42.855Z,4.90
2023-03-14T02:11:37.097Z,5.28
2023-03-14T02:18:30.421Z,5.00
2023-03-14T02:24:38.136Z,4.72
2023-03-14T02:27:44.246Z,4.74
2023-03-14T02:30:37.709Z,4.70
2023-03-14T02:36:03.026Z,4.78
2023-03-14T02:38:45.701Z,4.79
2023-03-14T02:41:26.640Z,4.80
2023-03-14T02:44:15.605Z,5.36
2023-03-14T02:46:50.624Z,4.86
2023-03-14T02:49:37.544Z,4.69
2023-03-14T02:55:09.943Z,5.15
2023-03-14T02:57:42.295Z,4.65
2023-03-14T03:00:47.341Z,5.34
2023-03-14T03:04:27.702Z,4.68
2023-03-14T03:07:29.574Z,5.32
2023-03-14T03:13:39.963Z,5.25
2023-03-14T03:16:50.657Z,4.70
2023-03-14T03:29:31.143Z,4.61
2023-03-14T03:35:25.519Z,5.19
2023-03-14T03:37:57.326Z,5.28
2023-03-14T03:40:37.032Z,4.64
2023-03-14T03:43:28.570Z,5.41
2023-03-14T03:55:21.585Z,5.08
2023-03-14T03:58:41.333Z,5.52
2023-03-14T04:09:06.195Z,5.53
2023-03-14T04:15:05.669Z,4.80
2023-03-14T04:21:18.975Z,5.38
2023-03-14T04:24:11.853Z,4.86
2023-03-14T04:26:53.919Z,5.28
2023-03-14T04:40:27.139Z,4.54
2023-03-14T04:43:26.519Z,5.17
2023-03-14T04:46:00.287Z,4.52
2023-03-14T04:48:39.587Z,4.86
2023-03-14T04:54:41.814Z,4.63
2023-03-14T05:01:52.194Z,4.96
2023-03-14T05:15:49.046Z,5.35
2023-03-14T05:18:38.842Z,5.36
2023-03-14T05:21:23.036Z,5.48
2023-03-14T05:24:05.978Z,5.23
2023-03-14T05:26:39.363Z,6.44
2023-03-14T05:29:20.552Z,6.61
2023-03-14T05:31:48.972Z,7.21
2023-03-14T05:34:36.208Z,8.19
2023-03-14T05:37:30.054Z,8.15
2023-03-14T05:40:07.957Z,8.46
2023-03-14T05:42:39.875Z,9.21
2023-03-14T05:45:24.572Z,9.68
2023-03-14T05:51:20.825Z,8.39
2023-03-14T05:53:48.697Z,8.53
2023-03-14T05:56:17.633Z,8.45
2023-03-14T05:58:44.798Z,8.82
2023-03-14T06:01:12.733Z,8.41
2023-03-14T06:03:40.316Z,7.26
2023-03-14T06:06:08.228Z,6.99
2023-03-14T06:08:36.953Z,5.83
2023-03-14T06:11:09.967Z,5.34
2023-03-14T06:25:20.944Z,5.12
2023-03-14T06:36:55.286Z,6.28
2023-03-14T06:47:10.648Z,6.68
2023-03-14T06:49:45.518Z,7.27
2023-03-14T06:52:50.621Z,7.45
2023-03-14T07:04:46.910Z,8.57
2023-03-14T07:10:06.607Z,8.94
2023-03-14T07:12:36.460Z,8.40
2023-03-14T07:15:17.439Z,8.98
2023-03-14T07:17:45.655Z,8.94
2023-03-14T07:20:23.977Z,8.91
2023-03-14T07:25:53.922Z,9.68
2023-03-14T07:28:28.148Z,9.48
2023-03-14T07:31:01.334Z,10.14
2023-03-14T07:33:35.467Z,10.37
2023-03-14T07:36:08.254Z,10.35
2023-03-14T07:38:42.941Z,10.20
2023-03-14T07:41:24.186Z,10.24
2023-03-14T07:43:58.071Z,10.46
2023-03-14T07:46:32.088Z,11.01
2023-03-14T07:52:28.578Z,10.74
2023-03-14T07:55:05.357Z,10.46
2023-03-14T07:57:38.211Z,11.48
2023-03-14T08:10:00.170Z,12.35
2023-03-14T08:21:24.339Z,12.61
2023-03-14T08:32:54.254Z,13.14
2023-03-14T08:41:13.456Z,14.07
2023-03-14T08:43:42.218Z,13.78
2023-03-14T08:46:09.375Z,13.95
2023-03-14T08:48:36.687Z,14.60
2023-03-14T08:51:07.917Z,14.40
2023-03-14T08:53:35.711Z,14.74
2023-03-14T08:56:02.886Z,14.56
2023-03-14T08:58:30.511Z,14.02
2023-03-14T09:00:59.205Z,14.08
2023-03-14T09:03:27.196Z,14.24
2023-03-14T09:05:54.557Z,13.97
2023-03-14T09:08:21.987Z,13.90
2023-03-14T09:10:49.031Z,13.88
2023-03-14T09:13:16.330Z,14.04
2023-03-14T09:15:43.593Z,14.51
2023-03-14T09:18:12.224Z,14.63
2023-03-14T09:20:40.969Z,14.68
2023-03-14T09:23:08.135Z,14.66
2023-03-14T09:25:35.182Z,14.36
2023-03-14T09:28:03.939Z,14.86
2023-03-14T09:30:31.030Z,14.54
2023-03-14T09:32:58.807Z,14.69
2023-03-14T09:35:27.500Z,14.84
2023-03-14T09:37:54.780Z,15.41
2023-03-14T09:40:22.410Z,15.69
2023-03-14T09:42:52.752Z,15.35
2023-03-14T09:45:28.439Z,15.36
2023-03-14T09:47:59.748Z,15.24
2023-03-14T09:50:34.801Z,14.91
2023-03-14T09:53:05.890Z,15.20
2023-03-14T09:55:36.716Z,15.41
2023-03-14T09:58:13.373Z,15.41
2023-03-14T10:00:41.005Z,16.11
2023-03-14T10:03:27.886Z,15.89
2023-03-14T10:05:57.676Z,16.00
2023-03-14T10:08:25.349Z,16.08
2023-03-14T10:10:54.813Z,16.72
2023-03-14T10:13:25.431Z,16.38
2023-03-14T10:15:54.745Z,16.60
2023-03-14T10:18:25.705Z,16.78
2023-03-14T10:21:07.971Z,17.05
2023-03-14T10:23:36.064Z,17.31
2023-03-14T10:26:09.267Z,16.97
2023-03-14T10:28:41.549Z,16.93
2023-03-14T10:31:08.758Z,17.28
2023-03-14T10:33:38.162Z,17.31
2023-03-14T10:36:18.061Z,16.86
2023-03-14T10:38:45.695Z,16.66
2023-03-14T10:41:19.906Z,16.53
2023-03-14T10:43:51.687Z,16.51
2023-03-14T10:46:21.025Z,17.01
2023-03-14T10:48:50.704Z,17.10
2023-03-14T10:51:27.060Z,16.65
2023-03-14T10:53:58.425Z,17.00
2023-03-14T10:56:27.777Z,17.49
2023-03-14T10:58:58.361Z,17.26
2023-03-14T11:01:42.726Z,17.36
2023-03-14T11:04:18.363Z,17.46
2023-03-14T11:06:53.242Z,17.11
2023-03-14T11:09:25.838Z,16.94
2023-03-14T11:11:52.871Z,17.03
2023-03-14T11:14:32.940Z,17.49
2023-03-14T11:17:09.593Z,17.03
2023-03-14T11:19:44.906Z,17.19
2023-03-14T11:22:23.841Z,17.40
2023-03-14T11:25:05.768Z,17.86
2023-03-14T11:27:43.004Z,17.87
2023-03-14T11:30:23.410Z,17.35
2023-03-14T11:32:57.597Z,17.53
2023-03-14T11:35:31.447Z,17.49
2023-03-14T11:38:11.200Z,18.05
2023-03-14T11:40:40.185Z,17.60
2023-03-14T11:43:14.846Z,17.62
2023-03-14T11:45:44.371Z,17.34
2023-03-14T11:48:33.330Z,18.06
2023-03-14T11:51:06.173Z,17.70
2023-03-14T11:53:44.530Z,17.81
2023-03-14T11:56:17.872Z,17.83
2023-03-14T11:58:56.790Z,18.28
2023-03-14T12:01:33.059Z,18.31
2023-03-14T12:04:05.610Z,17.94
2023-03-14T12:06:41.668Z,18.46
2023-03-14T12:09:11.895Z,18.59
2023-03-14T12:11:43.160Z,18.56
2023-03-14T12:14:23.025Z,18.29
2023-03-14T12:16:57.818Z,17.99
2023-03-14T12:19:34.864Z,18.35
2023-03-14T12:22:25.836Z,18.68
2023-03-14T12:25:01.750Z,18.34
2023-03-14T12:27:48.495Z,18.73
2023-03-14T12:30:25.917Z,18.29
2023-03-14T12:33:32.969Z,18.35
2023-03-14T12:36:03.262Z,17.84
2023-03-14T12:38:44.579Z,17.90
2023-03-14T12:41:22.087Z,17.59
2023-03-14T12:43:49.523Z,18.15
2023-03-14T12:46:22.866Z,17.60
2023-03-14T12:48:54.882Z,18.02
2023-03-14T12:51:30.336Z,18.06
2023-03-14T12:54:22.604Z,17.60
2023-03-14T12:57:26.598Z,17.64
2023-03-14T12:59:57.222Z,17.96
2023-03-14T13:02:27.252Z,17.81
2023-03-14T13:05:03.671Z,17.91
2023-03-14T13:07:34.528Z,17.73
2023-03-14T13:10:19.321Z,18.10
2023-03-14T13:12:51.802Z,17.50
2023-03-14T13:15:24.754Z,17.48
2023-03-14T13:17:54.714Z,18.15
2023-03-14T13:20:28.730Z,17.66
2023-03-14T13:22:55.852Z,17.68
2023-03-14T13:25:24.039Z,18.27
2023-03-14T13:27:56.574Z,17.85
2023-03-14T13:30:26.318Z,17.45
2023-03-14T13:32:55.507Z,18.35
2023-03-14T13:35:26.338Z,18.32
2023-03-14T13:38:10.181Z,17.92
2023-03-14T13:40:38.630Z,17.68
2023-03-14T13:43:15.325Z,18.30
2023-03-14T13:45:46.698Z,18.32
2023-03-14T13:48:16.118Z,18.20
2023-03-14T13:50:55.738Z,17.82
2023-03-14T13:53:23.791Z,17.75
2023-03-14T13:55:52.161Z,18.09
2023-03-14T13:58:26.911Z,18.02
2023-03-14T14:01:00.864Z,17.42
2023-03-14T14:03:29.132Z,17.58
2023-03-14T14:05:59.621Z,17.63
2023-03-14T14:08:28.005Z,16.96
2023-03-14T14:11:01.549Z,17.17
2023-03-14T14:13:34.548Z,16.88
2023-03-14T14:16:04.711Z,17.28
2023-03-14T14:18:33.411Z,17.10
2023-03-14T14:21:01.332Z,17.22
2023-03-14T14:23:30.549Z,16.91
2023-03-14T14:25:58.926Z,16.54
2023-03-14T14:28:28.875Z,16.67
2023-03-14T14:31:07.724Z,17.09
2023-03-14T14:33:42.984Z,16.67
2023-03-14T14:36:18.406Z,16.80
2023-03-14T14:38:51.383Z,16.66
2023-03-14T14:41:20.229Z,17.06
2023-03-14T14:43:47.715Z,16.63
2023-03-14T14:46:20.197Z,16.55
2023-03-14T14:48:50.626Z,17.04
2023-03-14T14:51:26.636Z,16.76
2023-03-14T14:54:15.557Z,16.98
2023-03-14T14:56:49.236Z,16.88
2023-03-14T14:59:23.516Z,17.14
2023-03-14T15:01:57.418Z,17.04
2023-03-14T15:04:24.833Z,17.52
2023-03-14T15:06:53.877Z,17.68
2023-03-14T15:09:21.437Z,17.27
2023-03-14T15:11:49.582Z,17.71
2023-03-14T15:14:16.914Z,17.71
2023-03-14T15:16:44.658Z,16.88
2023-03-14T15:19:24.688Z,17.68
2023-03-14T15:21:53.570Z,17.21
2023-03-14T15:24:20.745Z,17.70
2023-03-14T15:26:48.181Z,17.25
2023-03-14T15:29:15.415Z,17.73
2023-03-14T15:31:44.960Z,17.22
2023-03-14T15:34:13.671Z,17.24
2023-03-14T15:36:41.328Z,17.68
2023-03-14T15:39:08.766Z,17.20
2023-03-14T15:41:36.310Z,17.15
2023-03-14T15:44:03.380Z,16.83
2023-03-14T15:46:31.399Z,17.12
2023-03-14T15:48:58.592Z,17.56
2023-03-14T15:51:27.363Z,17.51
2023-03-14T15:53:54.429Z,17.42
2023-03-14T15:56:25.091Z,17.31
2023-03-14T15:58:52.533Z,16.80
2023-03-14T16:01:20.066Z,17.18
2023-03-14T16:03:47.380Z,17.12
2023-03-14T16:06:15.376Z,16.41
2023-03-14T16:08:43.872Z,16.87
2023-03-14T16:11:11.913Z,16.88
2023-03-14T16:13:39.328Z,16.81
2023-03-14T16:16:08.318Z,16.09
2023-03-14T16:18:36.455Z,16.61
2023-03-14T16:21:06.965Z,16.56
2023-03-14T16:23:37.244Z,16.46
2023-03-14T16:26:08.032Z,15.93
2023-03-14T16:28:35.543Z,16.24
2023-03-14T16:31:04.045Z,15.94
2023-03-14T16:33:33.668Z,15.65
2023-03-14T16:36:09.063Z,16.08
2023-03-14T16:38:42.025Z,15.74
2023-03-14T16:41:13.596Z,15.69
2023-03-14T16:43:41.718Z,16.01
2023-03-14T16:46:19.006Z,16.05
2023-03-14T16:48:46.298Z,16.29
2023-03-14T16:51:14.881Z,15.69
2023-03-14T16:53:42.269Z,15.40
2023-03-14T16:56:11.620Z,15.25
2023-03-14T16:58:39.169Z,14.99
2023-03-14T17:01:11.010Z,14.66
2023-03-14T17:03:39.416Z,15.13
2023-03-14T17:06:07.594Z,14.96
2023-03-14T17:08:35.164Z,14.64
2023-03-14T17:11:02.559Z,14.82
2023-03-14T17:13:30.941Z,14.22
2023-03-14T17:15:59.923Z,14.62
2023-03-14T17:18:29.519Z,14.00
2023-03-14T17:20:57.883Z,14.48
2023-03-14T17:23:26.498Z,13.88
2023-03-14T17:25:58.066Z,14.29
2023-03-14T17:28:26.959Z,13.98
2023-03-14T17:31:04.744Z,13.64
2023-03-14T17:33:31.944Z,14.12
2023-03-14T17:35:59.646Z,13.61
2023-03-14T17:38:27.358Z,13.56
2023-03-14T17:40:54.824Z,14.06
2023-03-14T17:43:22.072Z,13.96
2023-03-14T17:45:57.954Z,13.70
2023-03-14T17:48:26.535Z,13.91
2023-03-14T17:50:55.577Z,13.58
2023-03-14T17:53:24.392Z,13.67
2023-03-14T17:55:55.665Z,13.62
2023-03-14T17:58:27.504Z,13.55
2023-03-14T18:00:58.813Z,13.48
2023-03-14T18:03:30.759Z,13.46
2023-03-14T18:06:04.373Z,13.35
2023-03-14T18:08:31.418Z,13.19
2023-03-14T18:11:04.474Z,12.60
2023-03-14T18:13:31.515Z,12.91
2023-03-14T18:15:59.126Z,12.96
2023-03-14T18:18:33.847Z,12.19
2023-03-14T18:21:03.309Z,12.93
2023-03-14T18:23:31.353Z,12.28
2023-03-14T18:25:59.807Z,12.74
2023-03-14T18:28:27.285Z,12.66
2023-03-14T18:31:02.874Z,12.57
2023-03-14T18:33:37.748Z,12.38
2023-03-14T18:36:09.907Z,11.99
2023-03-14T18:38:42.980Z,12.20
2023-03-14T18:41:20.583Z,11.55
2023-03-14T18:43:53.201Z,12.27
2023-03-14T19:20:57.229Z,11.20
2023-03-14T20:16:45.160Z,10.91
2023-03-14T20:19:54.858Z,11.50
2023-03-14T20:56:59.204Z,11.53
2023-03-14T21:08:48.023Z,11.31
2023-03-14T21:11:56.309Z,11.05
2023-03-14T21:14:27.449Z,10.62
2023-03-14T21:19:59.268Z,11.14
2023-03-14T21:22:45.200Z,10.99
2023-03-14T21:25:18.692Z,11.28
2023-03-14T21:31:44.834Z,10.72
2023-03-14T21:34:37.073Z,10.66
2023-03-14T21:41:21.489Z,10.53
2023-03-14T21:43:52.744Z,10.54
2023-03-14T21:46:24.079Z,11.09
2023-03-14T21:48:58.252Z,11.07
2023-03-14T21:51:40.936Z,10.40
2023-03-14T21:54:26.332Z,11.04
2023-03-14T21:57:21.684Z,10.81
2023-03-14T22:05:49.208Z,10.28
2023-03-14T22:08:36.941Z,9.76
2023-03-14T22:14:42.198Z,10.15
2023-03-14T22:23:17.633Z,10.53
2023-03-14T22:32:01.568Z,9.97
2023-03-14T22:43:16.862Z,10.60
2023-03-14T22:45:47.858Z,10.28
2023-03-14T22:51:29.309Z,10.80
2023-03-14T22:54:14.588Z,10.33
2023-03-14T22:56:45.756Z,10.89
2023-03-14T22:59:26.228Z,10.51
2023-03-14T23:02:02.481Z,9.93
2023-03-14T23:04:30.949Z,10.38
2023-03-14T23:09:51.712Z,10.93
2023-03-14T23:12:30.610Z,11.20
2023-03-14T23:15:13.771Z,10.61
2023-03-14T23:17:48.934Z,10.59
2023-03-14T23:21:34.076Z,11.27
2023-03-14T23:24:15.291Z,10.82
2023-03-14T23:27:15.804Z,11.03
2023-03-14T23:29:48.613Z,11.19
2023-03-14T23:32:41.628Z,11.00
2023-03-14T23:35:15.999Z,10.34
2023-03-14T23:38:03.378Z,10.69
2023-03-14T23:40:31.638Z,10.20
2023-03-14T23:43:09.241Z,10.87
2023-03-14T23:45:38.583Z,10.94
2023-03-14T23:48:42.729Z,10.48
2023-03-14T23:51:22.508Z,11.00
2023-03-14T23:53:51.858Z,11.07
2023-03-14T23:59:06.105Z,10.59
